Time;durP1;ratioP1;P1;durP2;ratioP2;P2;SDS_P1;SDS_P2;PMS_P1;PMS_P2;Temp;Humidity;BMP_temperature;BMP_pressure;BME280_temperature;BME280_humidity;BME280_pressure;Samples;Min_cycle;Max_cycle;Signal;HPM_P1;HPM_P2
2023/01/31 00:01:25;;;;;;;35.50;8.90;;;;;;;0.89;100.00;160804.44;5008970;28;20189;-65
2023/01/31 00:03:56;;;;;;;42.97;11.70;;;;;;;0.83;100.00;160789.66;5010207;28;20252;-65
2023/01/31 00:06:23;;;;;;;33.35;9.68;;;;;;;0.79;100.00;160778.91;5006381;28;20184;-65
2023/01/31 00:08:49;;;;;;;33.72;8.40;;;;;;;0.75;100.00;160768.22;5010179;28;20149;-65
2023/01/31 00:11:18;;;;;;;32.63;9.15;;;;;;;0.69;100.00;160752.13;5007567;28;20072;-65
2023/01/31 00:13:44;;;;;;;23.92;8.68;;;;;;;0.72;100.00;160760.13;5010079;28;20453;-65
2023/01/31 00:16:10;;;;;;;28.23;6.45;;;;;;;0.69;100.00;160752.13;5009092;28;20041;-64
2023/01/31 00:18:37;;;;;;;39.75;8.13;;;;;;;0.66;100.00;160744.06;5009606;28;20103;-64
2023/01/31 00:21:11;;;;;;;35.05;9.43;;;;;;;0.66;100.00;160744.06;5008879;28;20038;-65
2023/01/31 00:23:37;;;;;;;33.90;9.43;;;;;;;0.63;100.00;160738.69;5010034;28;20030;-64
2023/01/31 00:26:11;;;;;;;27.45;7.18;;;;;;;0.56;100.00;160719.91;5009182;28;20049;-64
2023/01/31 00:28:37;;;;;;;31.05;8.45;;;;;;;0.65;100.00;160741.38;5014069;28;20132;-64
2023/01/31 00:31:03;;;;;;;23.00;7.15;;;;;;;0.67;100.00;160748.06;5012272;28;20572;-64
2023/01/31 00:33:28;;;;;;;47.90;7.15;;;;;;;0.71;100.00;160758.81;5013305;28;20376;-64
2023/01/31 00:35:53;;;;;;;29.77;8.57;;;;;;;0.78;100.00;160777.59;5012450;28;20041;-64
2023/01/31 00:38:19;;;;;;;32.88;9.10;;;;;;;0.82;100.00;160786.97;5013462;28;20026;-64
2023/01/31 00:40:51;;;;;;;35.67;10.25;;;;;;;0.81;100.00;160784.28;5012065;28;20041;-64
2023/01/31 00:43:16;;;;;;;32.05;10.80;;;;;;;0.82;100.00;160786.97;5013378;28;20026;-64
2023/01/31 00:45:42;;;;;;;35.08;8.70;;;;;;;0.84;100.00;160790.97;5012489;28;20045;-64
2023/01/31 00:48:07;;;;;;;35.97;8.52;;;;;;;0.83;100.00;160789.66;5013517;28;20026;-64
2023/01/31 00:50:32;;;;;;;22.45;7.65;;;;;;;0.86;100.00;160797.69;5012645;28;20042;-64
2023/01/31 00:52:58;;;;;;;33.55;9.50;;;;;;;0.79;100.00;160780.28;5013481;28;20489;-65
2023/01/31 00:55:23;;;;;;;25.73;7.28;;;;;;;0.71;100.00;160757.50;5011836;28;20451;-65
2023/01/31 00:57:48;;;;;;;29.45;7.53;;;;;;;0.70;100.00;160754.81;5013558;28;20045;-65
2023/01/31 01:00:14;;;;;;;25.02;7.50;;;;;;;0.61;100.00;160733.34;5012596;28;20029;-64
2023/01/31 01:02:40;;;;;;;33.72;8.50;;;;;;;0.51;100.00;160706.53;5013639;28;20026;-65
2023/01/31 01:05:05;;;;;;;26.73;8.32;;;;;;;0.46;100.00;160694.44;5012164;28;20491;-64
2023/01/31 01:07:31;;;;;;;34.25;10.73;;;;;;;0.49;100.00;160701.16;5013179;28;20061;-64
2023/01/31 01:09:57;;;;;;;36.20;9.75;;;;;;;0.54;100.00;160714.59;5012316;28;20022;-63
2023/01/31 01:12:22;;;;;;;29.80;8.70;;;;;;;0.57;100.00;160722.59;5012982;28;20390;-64
2023/01/31 01:14:47;;;;;;;26.50;8.82;;;;;;;0.57;100.00;160722.59;5012063;28;20041;-64
2023/01/31 01:17:13;;;;;;;18.02;6.88;;;;;;;0.56;100.00;160719.91;5012012;28;20042;-64
2023/01/31 01:19:38;;;;;;;40.58;10.85;;;;;;;0.50;100.00;160703.84;5012585;28;20469;-64
2023/01/31 01:22:03;;;;;;;31.30;10.52;;;;;;;0.48;100.00;160698.50;5011846;28;20413;-64
2023/01/31 01:24:29;;;;;;;42.95;8.65;;;;;;;0.50;100.00;160703.84;5013069;28;20030;-64
2023/01/31 01:26:54;;;;;;;60.10;12.35;;;;;;;0.52;100.00;160709.22;5011518;28;20038;-64
2023/01/31 01:29:19;;;;;;;29.23;8.52;;;;;;;0.52;100.00;160709.22;5013127;28;20029;-64
2023/01/31 01:31:45;;;;;;;39.70;12.80;;;;;;;0.46;100.00;160693.13;5011570;28;20045;-64
2023/01/31 01:34:13;;;;;;;27.52;8.07;;;;;;;0.49;100.00;160699.84;5012574;28;20014;-64
2023/01/31 01:36:39;;;;;;;41.47;11.85;;;;;;;0.43;100.00;160685.06;5011349;28;20073;-64
2023/01/31 01:39:08;;;;;;;35.53;10.32;;;;;;;0.54;100.00;160714.59;5012224;28;20034;-64
2023/01/31 01:41:35;;;;;;;25.10;7.30;;;;;;;0.60;100.00;160730.66;5011182;28;20049;-64
2023/01/31 01:44:03;;;;;;;24.15;6.85;;;;;;;0.58;100.00;160725.28;5012843;28;20397;-64
2023/01/31 01:46:34;;;;;;;29.17;9.32;;;;;;;0.57;100.00;160722.59;5011270;28;20476;-64
2023/01/31 01:49:19;;;;;;;29.85;7.43;;;;;;;0.68;100.00;160749.44;5012399;28;20049;-64
2023/01/31 01:51:48;;;;;;;34.05;8.70;;;;;;;0.73;100.00;160762.84;5011159;28;20052;-64
2023/01/31 01:54:18;;;;;;;;;;;;;;;0.81;100.00;160784.28;5013027;28;20034;-64
2023/01/31 01:56:46;;;;;;;33.85;8.88;;;;;;;0.92;100.00;160812.44;5010887;28;19967;-65
2023/01/31 01:59:20;;;;;;;37.05;8.82;;;;;;;1.02;100.00;160839.28;5012654;28;20026;-65
2023/01/31 02:01:48;;;;;;;38.38;8.13;;;;;;;1.09;100.00;160856.69;5011203;28;20386;-65
2023/01/31 02:04:18;;;;;;;35.10;7.80;;;;;;;1.12;100.00;160864.75;5012034;28;20061;-65
2023/01/31 02:06:45;;;;;;;21.95;6.55;;;;;;;1.12;100.00;160864.75;5010867;28;20147;-65
2023/01/31 02:09:19;;;;;;;53.22;12.23;;;;;;;1.15;100.00;160872.81;5012519;28;20628;-65
2023/01/31 02:11:44;;;;;;;22.05;9.10;;;;;;;1.20;100.00;160884.84;5010913;28;20052;-65
2023/01/31 02:14:11;;;;;;;37.15;9.43;;;;;;;1.24;100.00;160896.94;5012091;28;20026;-65
2023/01/31 02:16:36;;;;;;;22.65;8.30;;;;;;;1.28;100.00;160906.31;5010366;28;20037;-65
2023/01/31 02:19:07;;;;;;;41.78;9.60;;;;;;;1.37;100.00;160929.16;5011668;28;20037;-65
2023/01/31 02:21:50;;;;;;;35.10;8.63;;;;;;;1.40;100.00;160937.19;5010634;28;20042;-65
2023/01/31 02:24:31;;;;;;;30.13;10.00;;;;;;;1.42;100.00;160943.88;5011637;28;20030;-65
2023/01/31 02:27:46;;;;;;;35.03;8.57;;;;;;;1.57;100.00;160982.81;5010682;28;20034;-63
2023/01/31 02:30:30;;;;;;;19.48;9.68;;;;;;;1.56;100.00;160978.81;4981571;28;20492;-64
2023/01/31 02:32:55;;;;;;;19.00;6.68;;;;;;;1.58;100.00;160985.50;5011560;28;20026;-63
2023/01/31 02:35:27;;;;;;;26.83;8.35;;;;;;;1.63;100.00;160996.22;5010034;28;20588;-63
2023/01/31 02:38:26;;;;;;;25.40;7.07;;;;;;;1.68;100.00;161009.59;5012030;28;20034;-63
2023/01/31 02:41:13;;;;;;;15.18;7.15;;;;;;;1.69;100.00;161012.31;5010249;28;20025;-63
2023/01/31 02:47:27;;;;;;;17.52;6.60;;;;;;;1.69;100.00;161012.31;5009909;28;20108;-63
2023/01/31 02:50:02;;;;;;;25.45;9.57;;;;;;;1.70;100.00;161015.00;5011946;28;20378;-63
2023/01/31 02:52:32;;;;;;;34.88;8.80;;;;;;;1.70;100.00;161015.00;5010014;28;20041;-63
2023/01/31 02:57:59;;;;;;;28.02;7.82;;;;;;;1.82;100.00;161047.22;5011713;28;20117;-63
2023/01/31 03:00:26;;;;;;;21.60;6.45;;;;;;;1.82;100.00;161045.84;5009751;28;20042;-63
2023/01/31 03:02:52;;;;;;;21.33;6.75;;;;;;;1.75;100.00;161028.38;5011417;28;20021;-63
2023/01/31 03:05:18;;;;;;;39.70;7.55;;;;;;;1.77;100.00;161032.44;5009436;28;20512;-63
2023/01/31 03:08:04;;;;;;;26.40;8.82;;;;;;;1.87;100.00;161060.63;5011218;28;20140;-63
2023/01/31 03:10:38;;;;;;;26.45;9.05;;;;;;;1.90;100.00;161068.66;5009407;28;20184;-63
2023/01/31 03:13:24;;;;;;;31.02;11.05;;;;;;;1.86;100.00;161057.94;5011220;28;20033;-63
2023/01/31 03:19:19;;;;;;;22.67;7.78;;;;;;;1.96;100.00;161082.09;5011612;28;20120;-64
2023/01/31 03:21:52;;;;;;;27.55;8.82;;;;;;;1.92;100.00;161071.34;5009929;28;20539;-64
2023/01/31 03:24:18;;;;;;;25.73;7.95;;;;;;;2.03;100.00;161100.91;5010406;28;20408;-64
2023/01/31 03:26:44;;;;;;;34.28;12.13;;;;;;;2.08;100.00;161114.31;5009815;28;20046;-64
2023/01/31 03:29:14;;;;;;;18.30;8.85;;;;;;;2.06;100.00;161108.91;5011106;28;20493;-64
2023/01/31 03:32:03;;;;;;;26.83;9.18;;;;;;;2.05;100.00;161106.22;5009114;28;20120;-65
2023/01/31 03:34:29;;;;;;;32.78;8.80;;;;;;;2.05;100.00;161106.22;5011148;28;20050;-64
2023/01/31 03:37:14;;;;;;;33.13;9.20;;;;;;;2.08;100.00;161112.97;5009609;28;20038;-64
2023/01/31 03:39:58;;;;;;;18.58;7.57;;;;;;;2.12;100.00;161125.06;5010348;28;20033;-64
2023/01/31 03:42:35;;;;;;;25.17;6.43;;;;;;;2.13;100.00;161126.38;5029127;28;20041;-64
2023/01/31 03:45:10;;;;;;;14.15;7.80;;;;;;;2.13;100.00;161127.72;5029492;28;20033;-64
2023/01/31 03:47:45;;;;;;;15.50;6.85;;;;;;;2.15;100.00;161133.09;5030089;28;20052;-65
2023/01/31 03:50:20;;;;;;;29.48;8.95;;;;;;;2.20;100.00;161146.50;5029373;28;20097;-63
2023/01/31 03:52:53;;;;;;;16.13;7.75;;;;;;;2.25;100.00;161157.25;5030610;28;20022;-64
2023/01/31 03:55:26;;;;;;;19.95;7.72;;;;;;;2.28;100.00;161165.28;5028920;28;20143;-63
2023/01/31 03:57:54;;;;;;;29.00;9.93;;;;;;;2.33;100.00;161180.06;5030296;28;20025;-63
2023/01/31 04:00:21;;;;;;;20.98;7.78;;;;;;;2.38;100.00;161192.16;5028538;28;20042;-63
2023/01/31 04:02:52;;;;;;;26.65;7.65;;;;;;;2.36;100.00;161188.13;5033993;28;20025;-63
2023/01/31 04:05:29;;;;;;;30.92;10.15;;;;;;;2.40;100.00;161196.16;5023912;28;20493;-63
2023/01/31 04:07:55;;;;;;;22.83;6.28;;;;;;;2.44;100.00;161206.94;5014082;28;20045;-63
2023/01/31 04:10:20;;;;;;;22.85;8.52;;;;;;;2.39;100.00;161194.84;5011893;28;20077;-63
2023/01/31 04:12:45;;;;;;;18.25;7.43;;;;;;;2.43;100.00;161205.56;5012594;28;20029;-63
2023/01/31 04:15:11;;;;;;;30.38;8.55;;;;;;;2.39;100.00;161194.84;5010976;28;20040;-63
2023/01/31 04:17:37;;;;;;;23.52;8.50;;;;;;;2.45;100.00;161210.94;5013608;28;20032;-63
2023/01/31 04:20:05;;;;;;;21.40;9.25;;;;;;;2.41;100.00;161200.22;5012113;28;20065;-63
2023/01/31 04:22:30;;;;;;;32.70;10.60;;;;;;;2.44;100.00;161208.25;5013171;28;20018;-63
2023/01/31 04:24:55;;;;;;;26.83;7.55;;;;;;;2.45;100.00;161209.63;5000680;28;20030;-63
2023/01/31 04:27:21;;;;;;;26.35;9.10;;;;;;;2.45;100.00;161210.94;4997333;28;20041;-63
2023/01/31 04:29:46;;;;;;;26.55;9.48;;;;;;;2.33;100.00;161178.75;5014177;28;20432;-63
2023/01/31 04:32:11;;;;;;;34.38;9.15;;;;;;;2.44;100.00;161208.25;5012518;28;20042;-63
2023/01/31 04:34:37;;;;;;;42.42;12.55;;;;;;;2.45;100.00;161210.94;5013823;28;20021;-63
2023/01/31 04:37:02;;;;;;;23.23;8.63;;;;;;;2.49;100.00;161220.34;5012530;28;20045;-63
2023/01/31 04:39:27;;;;;;;36.05;8.85;;;;;;;2.50;100.00;161224.34;5013527;28;20033;-63
2023/01/31 04:41:53;;;;;;;30.98;8.70;;;;;;;2.47;100.00;161216.31;5012366;28;20123;-64
2023/01/31 04:44:18;;;;;;;54.80;8.65;;;;;;;2.47;100.00;161216.31;5013619;28;20025;-63
2023/01/31 04:46:45;;;;;;;31.75;8.57;;;;;;;2.44;100.00;161208.25;5012159;28;20493;-63
2023/01/31 04:49:11;;;;;;;28.40;10.57;;;;;;;2.45;100.00;161210.94;5014001;28;20032;-63
2023/01/31 04:51:36;;;;;;;24.05;10.02;;;;;;;2.47;100.00;161216.31;5012363;28;20042;-64
2023/01/31 04:54:02;;;;;;;35.30;10.93;;;;;;;2.49;100.00;161221.72;5013318;28;20030;-64
2023/01/31 04:56:27;;;;;;;31.52;11.93;;;;;;;2.46;100.00;161213.63;5011960;28;20393;-64
2023/01/31 04:58:52;;;;;;;28.52;9.57;;;;;;;2.49;100.00;161221.72;5014257;28;20030;-64
2023/01/31 05:01:18;;;;;;;18.00;9.27;;;;;;;2.57;100.00;161240.50;5011682;28;20042;-64
2023/01/31 05:03:43;;;;;;;31.30;8.77;;;;;;;2.60;100.00;161248.53;5013542;28;20469;-64
2023/01/31 05:06:09;;;;;;;27.52;9.98;;;;;;;2.58;100.00;161243.16;5011980;28;20386;-64
2023/01/31 05:08:34;;;;;;;26.02;10.27;;;;;;;2.59;100.00;161247.22;5012851;28;20039;-64
2023/01/31 05:11:00;;;;;;;25.88;9.25;;;;;;;2.63;100.00;161256.59;5011700;28;20080;-67
2023/01/31 05:13:28;;;;;;;41.05;10.88;;;;;;;2.68;100.00;161271.34;5010519;28;20033;-64
2023/01/31 05:15:54;;;;;;;29.93;11.60;;;;;;;2.64;100.00;161259.31;4995543;28;20057;-62
2023/01/31 05:18:20;;;;;;;44.15;12.57;;;;;;;2.68;100.00;161271.34;5002641;28;20473;-62
2023/01/31 05:20:48;;;;;;;21.80;11.50;;;;;;;2.67;100.00;161267.31;4997858;28;20091;-62
2023/01/31 05:23:14;;;;;;;;;;;;;;;2.69;100.00;161272.72;5013703;28;20026;-62
2023/01/31 05:25:39;;;;;;;24.17;10.73;;;;;;;2.75;100.00;161287.50;5011317;28;20418;-61
2023/01/31 05:28:04;;;;;;;24.88;12.48;;;;;;;2.76;100.00;161291.50;5013045;28;20444;-63
2023/01/31 05:30:30;;;;;;;28.30;12.65;;;;;;;2.75;100.00;161288.81;5010282;28;20042;-63
2023/01/31 05:32:55;;;;;;;42.72;15.55;;;;;;;2.74;100.00;161286.13;5012919;28;20026;-63
2023/01/31 05:35:21;;;;;;;34.53;13.40;;;;;;;2.77;100.00;161294.19;5011492;28;20037;-62
2023/01/31 05:37:46;;;;;;;29.27;13.48;;;;;;;2.67;100.00;161267.31;5008178;28;20025;-63
2023/01/31 05:40:14;;;;;;;43.60;14.35;;;;;;;2.83;100.00;161308.97;5009552;28;20036;-62
2023/01/31 05:42:40;;;;;;;18.60;10.87;;;;;;;2.84;100.00;161313.00;5011959;28;20029;-63
2023/01/31 05:45:06;;;;;;;36.25;15.73;;;;;;;2.91;100.00;161329.09;5011042;28;20774;-62
2023/01/31 05:47:32;;;;;;;33.55;16.73;;;;;;;2.95;100.00;161339.81;5012425;28;20028;-63
2023/01/31 05:49:57;;;;;;;40.55;15.85;;;;;;;3.02;100.00;161358.63;5012371;28;20025;-58
2023/01/31 05:52:22;;;;;;;47.00;18.48;;;;;;;3.02;100.00;161358.63;5012103;28;20052;-63
2023/01/31 05:54:48;;;;;;;37.67;16.00;;;;;;;3.04;100.00;161364.00;5012550;28;20041;-63
2023/01/31 05:57:14;;;;;;;40.13;19.85;;;;;;;3.05;100.00;161366.72;5011207;28;20038;-63
2023/01/31 05:59:39;;;;;;;41.38;16.08;;;;;;;3.07;100.00;161372.09;5012310;28;20034;-63
2023/01/31 06:02:05;;;;;;;27.35;14.60;;;;;;;3.12;100.00;161385.50;5010987;28;20042;-63
2023/01/31 06:04:30;;;;;;;35.97;17.30;;;;;;;3.15;100.00;161393.59;5012659;28;20051;-62
2023/01/31 06:06:55;;;;;;;43.08;17.35;;;;;;;3.19;100.00;161402.97;5010377;28;20054;-62
2023/01/31 06:09:21;;;;;;;34.67;14.95;;;;;;;3.22;100.00;161409.69;5012100;28;20385;-62
2023/01/31 06:11:46;;;;;;;36.92;16.25;;;;;;;3.22;100.00;161409.69;5010883;28;20052;-62
2023/01/31 06:14:11;;;;;;;41.88;16.90;;;;;;;3.25;100.00;161417.72;5011921;28;20014;-62
2023/01/31 06:16:37;;;;;;;28.08;16.25;;;;;;;3.26;100.00;161420.41;5010665;28;20448;-62
2023/01/31 06:19:02;;;;;;;37.00;17.35;;;;;;;3.18;100.00;161401.63;5012434;28;20059;-62
2023/01/31 06:21:27;;;;;;;56.85;20.73;;;;;;;3.30;100.00;161431.19;5010192;28;20077;-62
2023/01/31 06:23:53;;;;;;;36.80;14.70;;;;;;;3.32;100.00;161436.53;5012038;28;20024;-62
2023/01/31 06:26:18;;;;;;;36.63;18.17;;;;;;;3.35;100.00;161444.59;5005486;28;20077;-63
2023/01/31 06:28:43;;;;;;;49.50;19.85;;;;;;;3.40;100.00;161456.69;4992003;28;20022;-63
2023/01/31 06:31:10;;;;;;;51.33;19.60;;;;;;;3.40;100.00;161458.03;4991027;28;20046;-63
2023/01/31 06:33:36;;;;;;;58.70;18.77;;;;;;;3.40;100.00;161458.03;4991876;28;20050;-63
2023/01/31 06:36:02;;;;;;;38.80;17.48;;;;;;;3.40;100.00;161458.03;4991475;28;20090;-63
2023/01/31 06:38:27;;;;;;;41.97;18.65;;;;;;;3.40;100.00;161458.03;5022931;28;20030;-63
2023/01/31 06:40:53;;;;;;;34.30;18.48;;;;;;;3.42;100.00;161463.41;5030220;28;20033;-63
2023/01/31 06:43:18;;;;;;;48.88;17.75;;;;;;;3.48;100.00;161479.53;5018184;28;20026;-63
2023/01/31 06:45:44;;;;;;;45.40;18.05;;;;;;;3.52;100.00;161487.59;5010128;28;20052;-63
2023/01/31 06:48:10;;;;;;;65.22;20.35;;;;;;;3.55;100.00;161495.63;5011930;28;20022;-63
2023/01/31 06:50:35;;;;;;;33.25;15.70;;;;;;;3.53;100.00;161491.63;5009737;28;20121;-63
2023/01/31 06:53:01;;;;;;;38.22;18.52;;;;;;;3.56;100.00;161498.34;5010909;28;20030;-63
2023/01/31 06:55:26;;;;;;;53.92;18.55;;;;;;;3.59;100.00;161507.72;5009584;28;20378;-63
2023/01/31 06:57:51;;;;;;;34.72;18.23;;;;;;;3.60;100.00;161510.44;5011590;28;20113;-63
2023/01/31 07:00:17;;;;;;;46.83;18.20;;;;;;;3.66;100.00;161525.22;5009600;28;20042;-62
2023/01/31 07:02:44;;;;;;;44.50;22.33;;;;;;;3.69;100.00;161533.25;5010972;28;20050;-63
2023/01/31 07:05:09;;;;;;;59.72;22.33;;;;;;;3.69;100.00;161533.25;5008301;28;20022;-63
2023/01/31 07:07:35;;;;;;;45.13;18.17;;;;;;;3.78;100.00;161557.44;5008881;28;20069;-62
2023/01/31 07:10:00;;;;;;;46.22;18.60;;;;;;;3.82;100.00;161566.84;5008710;28;20080;-62
2023/01/31 07:12:26;;;;;;;47.25;20.50;;;;;;;3.85;100.00;161573.56;5010103;28;20026;-63
2023/01/31 07:14:52;;;;;;;38.97;17.95;;;;;;;3.90;100.00;161587.03;5010944;28;20029;-63
2023/01/31 07:17:19;;;;;;;46.15;18.15;;;;;;;3.91;100.00;161589.75;5008531;28;20038;-63
2023/01/31 07:19:45;;;;;;;61.60;17.75;;;;;;;3.88;100.00;161581.66;5011530;28;20464;-63
2023/01/31 07:22:10;;;;;;;39.40;16.98;;;;;;;3.88;100.00;161581.66;5008771;28;20092;-63
2023/01/31 07:24:35;;;;;;;31.38;17.90;;;;;;;3.85;100.00;161573.56;5009764;28;20026;-64
2023/01/31 07:27:01;;;;;;;49.88;22.02;;;;;;;3.83;100.00;161569.56;5007911;28;20042;-63
2023/01/31 07:29:26;;;;;;;38.53;19.23;;;;;;;3.84;100.00;161570.88;5010714;28;20085;-63
2023/01/31 07:31:53;;;;;;;45.20;19.40;;;;;;;3.85;100.00;161573.56;5007398;28;20046;-63
2023/01/31 07:34:21;;;;;;;44.42;22.35;;;;;;;3.85;100.00;161573.56;5010705;28;20022;-63
2023/01/31 07:36:47;;;;;;;44.50;19.30;;;;;;;3.80;100.00;161562.84;5007642;28;20049;-63
2023/01/31 07:39:13;;;;;;;42.20;19.10;;;;;;;3.84;100.00;161570.88;5010936;28;20402;-63
2023/01/31 07:41:38;;;;;;;42.97;18.77;;;;;;;3.81;100.00;161565.53;5008540;28;20041;-63
2023/01/31 07:44:07;;;;;;;34.42;19.88;;;;;;;3.86;100.00;161576.25;5010665;28;20374;-63
2023/01/31 07:46:33;;;;;;;47.75;20.20;;;;;;;3.88;100.00;161581.66;5008055;28;20057;-63
2023/01/31 07:48:58;;;;;;;39.47;19.13;;;;;;;3.89;100.00;161585.66;4991316;28;20045;-63
2023/01/31 07:51:23;;;;;;;43.10;18.90;;;;;;;3.89;100.00;161584.34;4989359;28;20050;-63
2023/01/31 07:53:49;;;;;;;58.25;20.27;;;;;;;3.90;100.00;161587.03;4991126;28;20057;-63
2023/01/31 07:56:17;;;;;;;48.40;19.27;;;;;;;3.92;100.00;161593.75;4993447;28;20033;-63
2023/01/31 07:58:43;;;;;;;41.40;19.27;;;;;;;3.92;100.00;161593.75;5010827;28;20435;-63
2023/01/31 08:03:58;;;;;;;42.25;18.70;;;;;;;3.94;100.00;161597.78;5011137;28;20056;-63
2023/01/31 08:06:23;;;;;;;74.22;20.58;;;;;;;3.97;100.00;161605.84;5008628;28;20077;-63
2023/01/31 08:08:48;;;;;;;40.58;16.02;;;;;;;3.99;100.00;161611.19;5010792;28;20026;-63
2023/01/31 08:11:14;;;;;;;36.95;16.10;;;;;;;4.05;100.00;161627.38;4996456;28;20445;-63
2023/01/31 08:13:39;;;;;;;38.50;17.90;;;;;;;3.99;100.00;161611.19;5008275;28;20022;-63
2023/01/31 08:16:09;;;;;;;30.73;15.77;;;;;;;4.07;100.00;161632.69;5007293;28;20099;-63
2023/01/31 08:18:35;;;;;;;36.35;18.35;;;;;;;4.06;100.00;161630.00;5010717;28;20025;-63
2023/01/31 08:21:01;;;;;;;43.70;17.02;;;;;;;4.11;100.00;161642.09;5007979;28;20045;-63
2023/01/31 08:23:27;;;;;;;53.00;19.60;;;;;;;4.13;100.00;161648.81;5010635;28;20346;-63
2023/01/31 08:26:02;;;;;;;41.35;17.90;;;;;;;4.04;100.00;161624.66;5009344;28;20042;-63
2023/01/31 08:28:27;;;;;;;38.50;18.58;;;;;;;4.17;100.00;161656.91;5009942;28;20034;-63
2023/01/31 08:30:53;;;;;;;37.97;17.83;;;;;;;4.15;100.00;161651.50;5007474;28;20104;-63
2023/01/31 08:33:18;;;;;;;28.33;15.77;;;;;;;4.19;100.00;161662.31;5008005;28;20485;-63
2023/01/31 08:35:43;;;;;;;45.45;15.35;;;;;;;4.20;100.00;161665.00;5027835;28;20041;-63
2023/01/31 08:38:09;;;;;;;32.63;15.43;;;;;;;4.23;100.00;161674.41;5035311;28;20071;-63
2023/01/31 08:40:34;;;;;;;26.35;14.60;;;;;;;4.18;100.00;161659.59;5028264;28;20034;-63
2023/01/31 08:43:00;;;;;;;34.60;17.63;;;;;;;4.33;100.00;161699.94;5029680;28;20473;-63
2023/01/31 08:45:26;;;;;;;39.30;16.58;;;;;;;4.36;100.00;161707.97;5028599;28;20053;-63
2023/01/31 08:47:59;;;;;;;33.67;14.93;;;;;;;4.34;100.00;161701.25;5031700;28;20079;-63
2023/01/31 08:50:27;;;;;;;42.47;19.80;;;;;;;4.43;100.00;161726.78;5031731;28;20065;-63
2023/01/31 08:53:01;;;;;;;34.10;14.05;;;;;;;4.51;100.00;161745.59;5033437;28;20045;-63
2023/01/31 08:55:27;;;;;;;33.88;12.82;;;;;;;4.52;100.00;161748.31;5031730;28;20079;-63
2023/01/31 08:57:53;;;;;;;24.30;12.98;;;;;;;4.55;100.00;161756.38;5033120;28;20151;-64
2023/01/31 09:00:20;;;;;;;33.75;14.25;;;;;;;4.52;100.00;161748.31;5031349;28;20117;-63
2023/01/31 09:02:56;;;;;;;30.17;14.00;;;;;;;4.55;100.00;161756.38;5033315;28;20116;-63
2023/01/31 09:05:24;;;;;;;31.52;13.23;;;;;;;4.57;100.00;161763.09;5031411;28;20116;-63
2023/01/31 09:07:49;;;;;;;28.55;12.52;;;;;;;4.58;100.00;161765.81;5033199;28;20049;-63
2023/01/31 09:10:15;;;;;;;23.95;12.25;;;;;;;4.70;100.00;161796.72;5031921;28;20064;-62
2023/01/31 09:12:41;;;;;;;26.98;13.05;;;;;;;4.73;100.00;161804.75;5032596;28;20037;-63
2023/01/31 09:15:06;;;;;;;41.65;16.73;;;;;;;4.79;100.00;161818.25;5031535;28;20033;-62
2023/01/31 09:17:32;;;;;;;36.10;15.07;;;;;;;4.74;100.00;161807.47;5032841;28;20032;-63
2023/01/31 09:19:57;;;;;;;28.08;14.40;;;;;;;4.80;100.00;161820.94;5031421;28;20029;-62
2023/01/31 09:22:23;;;;;;;40.03;15.98;;;;;;;4.84;100.00;161833.00;5032780;28;20037;-63
2023/01/31 09:24:48;;;;;;;27.13;14.27;;;;;;;4.89;100.00;161845.09;5033353;28;20037;-63
2023/01/31 09:27:14;;;;;;;28.60;13.90;;;;;;;4.92;100.00;161853.19;5031052;28;20103;-63
2023/01/31 09:29:39;;;;;;;43.08;16.95;;;;;;;4.88;100.00;161842.41;5032894;28;20030;-63
2023/01/31 09:32:05;;;;;;;33.80;16.92;;;;;;;4.97;100.00;161866.63;5031331;28;20042;-63
2023/01/31 09:34:30;;;;;;;30.95;14.07;;;;;;;5.00;100.00;161874.72;5032120;28;20477;-63
2023/01/31 09:36:56;;;;;;;39.25;15.93;;;;;;;5.04;100.00;161884.13;5031179;28;20037;-63
2023/01/31 09:39:22;;;;;;;32.53;14.27;;;;;;;5.12;100.00;161904.28;5032837;28;20035;-63
2023/01/31 09:41:54;;;;;;;29.40;13.05;;;;;;;5.17;100.00;161919.09;5030984;28;20501;-63
2023/01/31 09:44:27;;;;;;;30.05;14.00;;;;;;;5.12;100.00;161905.66;5032376;28;20057;-63
2023/01/31 09:46:58;;;;;;;32.03;13.88;;;;;;;5.13;100.00;161906.97;5031164;28;20421;-63
2023/01/31 09:49:31;;;;;;;35.60;14.95;;;;;;;5.06;100.00;161890.84;5032104;28;20455;-63
2023/01/31 09:52:01;;;;;;;21.23;10.75;;;;;;;5.13;100.00;161906.97;5031310;28;20037;-63
2023/01/31 09:54:33;;;;;;;32.22;13.57;;;;;;;5.11;100.00;161902.97;5032320;28;20411;-63
2023/01/31 09:57:15;;;;;;;47.50;17.02;;;;;;;5.19;100.00;161924.50;5030729;28;20053;-64
2023/01/31 10:00:06;;;;;;;30.17;13.10;;;;;;;5.26;100.00;161941.94;5026982;28;20028;-64
2023/01/31 10:02:50;;;;;;;31.70;15.55;;;;;;;5.36;100.00;161968.88;5007118;28;20106;-63
2023/01/31 10:05:37;;;;;;;29.25;12.27;;;;;;;5.36;100.00;161968.88;5030410;28;20033;-63
2023/01/31 10:08:19;;;;;;;30.20;10.68;;;;;;;5.39;100.00;161976.97;5032099;28;20481;-63
2023/01/31 10:10:51;;;;;;;26.20;11.45;;;;;;;5.25;100.00;161939.25;5035890;28;20078;-63
2023/01/31 10:13:24;;;;;;;27.25;11.52;;;;;;;5.39;100.00;161976.97;5051830;28;20025;-63
2023/01/31 10:15:57;;;;;;;32.45;9.65;;;;;;;5.43;100.00;161985.00;5040164;28;20049;-62
2023/01/31 10:18:29;;;;;;;26.42;12.57;;;;;;;5.37;100.00;161970.19;5031474;28;20025;-62
2023/01/31 10:21:12;;;;;;;25.70;11.70;;;;;;;5.45;100.00;161990.41;5030015;28;20041;-64
2023/01/31 10:23:49;;;;;;;30.73;12.27;;;;;;;5.49;100.00;162001.13;5031705;28;20101;-64
2023/01/31 10:26:22;;;;;;;20.73;11.13;;;;;;;5.58;100.00;162025.38;5030133;28;20594;-63
2023/01/31 10:29:03;;;;;;;21.52;12.05;;;;;;;5.60;100.00;162029.38;5032030;28;20030;-64
2023/01/31 10:31:35;;;;;;;28.40;10.52;;;;;;;5.57;100.00;162022.66;5030246;28;20064;-63
2023/01/31 10:34:13;;;;;;;29.02;14.30;;;;;;;5.60;100.00;162030.75;5031085;28;20031;-63
2023/01/31 10:36:48;;;;;;;19.03;8.87;;;;;;;5.76;100.00;162071.13;5027556;28;20044;-63
2023/01/31 10:39:20;;;;;;;27.30;11.55;;;;;;;5.79;100.00;162080.53;5012002;28;20037;-63
2023/01/31 10:42:07;;;;;;;28.58;12.07;;;;;;;5.64;100.00;162040.19;5010266;28;20057;-63
2023/01/31 10:44:57;;;;;;;23.30;12.10;;;;;;;5.61;100.00;162033.47;5011589;28;20036;-63
2023/01/31 10:47:33;;;;;;;33.03;9.65;;;;;;;5.61;100.00;162033.47;5009664;28;20049;-63
2023/01/31 10:49:58;;;;;;;29.70;12.23;;;;;;;5.61;100.00;162033.47;5010616;28;20124;-62
2023/01/31 10:52:52;;;;;;;20.45;10.32;;;;;;;5.59;100.00;162026.69;5011340;28;20029;-63
2023/01/31 10:55:34;;;;;;;33.50;11.38;;;;;;;5.62;100.00;162036.09;5009533;28;20407;-63
2023/01/31 10:58:00;;;;;;;23.75;11.68;;;;;;;5.61;100.00;162032.09;5011581;28;20033;-63
2023/01/31 11:00:30;;;;;;;18.75;9.57;;;;;;;5.69;100.00;162055.00;5009860;28;20044;-63
2023/01/31 11:02:57;;;;;;;26.60;11.60;;;;;;;5.67;100.00;162048.22;5011128;28;20049;-63
2023/01/31 11:05:25;;;;;;;25.13;12.52;;;;;;;5.66;100.00;162046.91;5009946;28;20037;-63
2023/01/31 11:07:51;;;;;;;22.83;12.23;;;;;;;5.60;100.00;162030.75;5011342;28;20054;-63
2023/01/31 11:10:25;;;;;;;26.15;10.85;;;;;;;5.62;100.00;162036.09;5007414;28;20046;-62
2023/01/31 11:12:58;;;;;;;28.48;12.00;;;;;;;5.61;100.00;162033.47;5009769;28;20221;-62
2023/01/31 11:15:28;;;;;;;23.33;12.15;;;;;;;5.61;100.00;162033.47;5008991;28;20099;-62
2023/01/31 11:17:58;;;;;;;20.52;11.38;;;;;;;5.43;100.00;161985.00;5015285;28;20018;-62
2023/01/31 11:20:29;;;;;;;23.23;12.07;;;;;;;5.46;100.00;161993.09;5027582;28;20069;-62
2023/01/31 11:22:56;;;;;;;26.38;12.45;;;;;;;5.44;100.00;161989.03;5030348;28;20028;-61
2023/01/31 11:25:24;;;;;;;21.30;13.25;;;;;;;5.39;100.00;161976.97;5027940;28;20515;-61
2023/01/31 11:27:53;;;;;;;31.13;13.23;;;;;;;5.38;100.00;161974.25;5029513;28;20025;-61
2023/01/31 11:30:25;;;;;;;32.88;15.57;;;;;;;5.44;100.00;161987.69;5028459;28;20451;-63
2023/01/31 11:32:50;;;;;;;20.67;11.02;;;;;;;5.45;100.00;161991.72;5029893;28;20026;-61